Terminal Aerodrome Forecast
Issued by NWS Wilmington, OH

Current Version | Previous Version | Graphics & Text | Print | Product List | Glossary On
Versions: 1 2 3 4 5 6 7 8 9 10 11 12 13 14 15 16 17 18 19 20 21 22 23 24
000
FTUS41 KILN 301456 AAA
TAFCVG
TAF AMD
KCVG 301456Z 3015/3118 21008KT P6SM SCT025 SCT060 SCT150
     FM301800 20008KT P6SM VCSH BKN040
     FM310000 22003KT P6SM SCT150
      TEMPO 3108/3112 00000KT 3SM BR SKC
     FM311400 23005KT P6SM FEW025 SCT100=

USA.gov is the U.S. government's official web portal to all federal, state and local government web resources and services.